Time;durP1;ratioP1;P1;durP2;ratioP2;P2;SDS_P1;SDS_P2;PMS_P1;PMS_P2;Temp;Humidity;BMP_temperature;BMP_pressure;BME280_temperature;BME280_humidity;BME280_pressure;Samples;Min_cycle;Max_cycle;Signal;HPM_P1;HPM_P2
2021/11/11 00:01:42;;;;;;;24.92;13.98;;;3.20;93.10;;;;;;5044638;28;20111;-76
2021/11/11 00:04:10;;;;;;;31.45;16.02;;;3.20;93.20;;;;;;5034003;28;20498;-76
2021/11/11 00:06:37;;;;;;;31.20;15.68;;;3.10;93.10;;;;;;5051250;28;20021;-76
2021/11/11 00:09:04;;;;;;;32.58;16.70;;;3.10;93.20;;;;;;5050668;28;20021;-76
2021/11/11 00:11:30;;;;;;;25.88;14.00;;;3.10;93.20;;;;;;5054323;28;20120;-76
2021/11/11 00:13:56;;;;;;;31.17;16.30;;;3.10;93.20;;;;;;5054079;28;20034;-76
2021/11/11 00:16:22;;;;;;;25.23;14.30;;;3.10;93.20;;;;;;5053965;28;20033;-76
2021/11/11 00:18:48;;;;;;;33.75;15.73;;;3.10;93.20;;;;;;5053754;28;20068;-76
2021/11/11 00:21:14;;;;;;;34.38;15.10;;;3.10;93.50;;;;;;5053959;28;20052;-76
2021/11/11 00:23:40;;;;;;;32.40;15.15;;;3.10;93.20;;;;;;5054056;28;20028;-76
2021/11/11 00:26:06;;;;;;;34.63;15.10;;;3.10;93.20;;;;;;5053588;28;20041;-76
2021/11/11 00:28:31;;;;;;;34.92;15.73;;;3.10;93.20;;;;;;5053919;28;20415;-76
2021/11/11 00:30:57;;;;;;;32.70;15.13;;;3.00;93.10;;;;;;5054812;28;20029;-76
2021/11/11 00:33:23;;;;;;;31.52;15.63;;;3.00;93.10;;;;;;5033889;28;20514;-76
2021/11/11 00:35:48;;;;;;;26.63;14.52;;;3.00;93.10;;;;;;5033568;28;20041;-76
2021/11/11 00:38:14;;;;;;;33.00;15.35;;;3.00;93.10;;;;;;5053620;28;20029;-76
2021/11/11 00:40:40;;;;;;;26.17;15.23;;;3.00;93.10;;;;;;5054765;28;20394;-76
2021/11/11 00:43:06;;;;;;;24.23;14.63;;;2.90;93.10;;;;;;5054713;28;20102;-76
2021/11/11 00:45:33;;;;;;;31.52;15.85;;;2.90;93.10;;;;;;5053362;28;20477;-77
2021/11/11 00:47:59;;;;;;;27.75;15.23;;;2.90;93.10;;;;;;5053258;28;20033;-77
2021/11/11 00:50:29;;;;;;;25.80;14.10;;;2.90;93.10;;;;;;5053105;28;20120;-76
2021/11/11 00:52:54;;;;;;;32.78;16.55;;;2.90;93.10;;;;;;5053035;28;20036;-77
2021/11/11 00:55:20;;;;;;;35.10;15.93;;;2.90;93.10;;;;;;5052853;28;20037;-76
2021/11/11 00:57:46;;;;;;;29.75;13.95;;;2.90;93.10;;;;;;5054251;28;20025;-76
2021/11/11 01:00:14;;;;;;;24.33;13.60;;;2.80;93.10;;;;;;5052650;28;20029;-76
2021/11/11 01:02:40;;;;;;;31.25;16.02;;;2.80;93.10;;;;;;5054097;28;20497;-76
2021/11/11 01:05:08;;;;;;;28.58;14.68;;;2.70;93.00;;;;;;5035371;28;20038;-76
2021/11/11 01:07:37;;;;;;;30.73;15.80;;;2.70;93.10;;;;;;5052316;28;20044;-76
2021/11/11 01:10:13;;;;;;;35.72;15.63;;;2.70;93.10;;;;;;5054119;28;20394;-76
2021/11/11 01:12:39;;;;;;;29.90;13.70;;;2.70;93.10;;;;;;5053775;28;20029;-76
2021/11/11 01:15:07;;;;;;;30.75;15.15;;;2.70;93.10;;;;;;5052714;28;20410;-76
2021/11/11 01:17:33;;;;;;;28.87;14.80;;;2.60;93.40;;;;;;5052426;28;20025;-76
2021/11/11 01:19:59;;;;;;;29.70;16.25;;;2.60;93.10;;;;;;5053244;28;20321;-76
2021/11/11 01:22:25;;;;;;;29.27;15.18;;;2.60;93.10;;;;;;5035829;28;20036;-77
2021/11/11 01:24:51;;;;;;;39.63;15.48;;;2.60;93.20;;;;;;5053756;28;20134;-76
2021/11/11 01:27:16;;;;;;;30.67;14.57;;;2.60;93.30;;;;;;5035968;28;20557;-76
2021/11/11 01:29:43;;;;;;;33.17;15.60;;;2.60;93.30;;;;;;5053331;28;20032;-76
2021/11/11 01:32:09;;;;;;;23.75;13.80;;;2.60;93.30;;;;;;5032337;28;20056;-76
2021/11/11 01:34:35;;;;;;;29.38;14.88;;;2.60;93.30;;;;;;5051971;28;20033;-76
2021/11/11 01:37:00;;;;;;;28.20;14.43;;;2.60;93.30;;;;;;5052047;28;20488;-76
2021/11/11 01:39:26;;;;;;;25.27;14.35;;;2.70;93.40;;;;;;5049785;28;20104;-76
2021/11/11 01:41:52;;;;;;;39.13;16.48;;;2.70;93.40;;;;;;5048954;28;20378;-76
2021/11/11 01:44:19;;;;;;;31.80;15.70;;;2.60;93.30;;;;;;5049204;28;20025;-76
2021/11/11 01:46:45;;;;;;;38.63;18.27;;;2.60;93.30;;;;;;5048887;28;20389;-76
2021/11/11 01:49:13;;;;;;;30.67;16.50;;;2.60;93.40;;;;;;5050365;28;20100;-76
2021/11/11 01:51:39;;;;;;;36.03;14.93;;;2.60;93.50;;;;;;5048624;28;20021;-76
2021/11/11 01:54:06;;;;;;;48.80;17.25;;;2.60;93.60;;;;;;5029227;28;20034;-76
2021/11/11 01:56:31;;;;;;;37.55;15.98;;;2.60;93.60;;;;;;5048469;28;20041;-77
2021/11/11 01:58:57;;;;;;;45.90;19.25;;;2.70;93.60;;;;;;5015997;28;20044;-77
2021/11/11 02:01:23;;;;;;;58.92;20.40;;;2.70;93.70;;;;;;5048524;28;20056;-76
2021/11/11 02:03:53;;;;;;;42.28;19.00;;;2.70;93.90;;;;;;5032056;28;20564;-76
2021/11/11 02:06:19;;;;;;;46.97;16.52;;;2.70;93.70;;;;;;5048724;28;20044;-76
2021/11/11 02:08:45;;;;;;;32.95;15.75;;;2.70;93.80;;;;;;5048918;28;20025;-76
2021/11/11 02:11:11;;;;;;;35.05;16.63;;;2.70;93.80;;;;;;5050295;28;20064;-76
2021/11/11 02:13:37;;;;;;;77.20;19.33;;;2.70;93.80;;;;;;5032071;28;20401;-76
2021/11/11 02:16:03;;;;;;;29.15;14.45;;;2.70;93.80;;;;;;5032176;28;20052;-76
2021/11/11 02:18:29;;;;;;;26.92;14.52;;;2.70;93.80;;;;;;5032907;28;20036;-76
2021/11/11 02:20:55;;;;;;;54.30;14.80;;;2.70;93.80;;;;;;5049114;28;20117;-76
2021/11/11 02:23:21;;;;;;;29.00;12.60;;;2.60;93.80;;;;;;5050044;28;20143;-76
2021/11/11 02:25:47;;;;;;;25.75;11.80;;;2.70;93.90;;;;;;5050425;28;20163;-76
2021/11/11 02:28:16;;;;;;;44.75;13.30;;;2.60;93.80;;;;;;5051491;28;20025;-77
2021/11/11 02:30:45;;;;;;;39.05;12.90;;;2.60;93.80;;;;;;5050216;28;20033;-77
2021/11/11 02:33:13;;;;;;;59.33;14.82;;;2.60;93.80;;;;;;5027396;28;20111;-77
2021/11/11 02:35:40;;;;;;;37.67;9.88;;;2.60;93.80;;;;;;5046596;28;20454;-76
2021/11/11 02:38:07;;;;;;;50.67;12.73;;;2.60;94.10;;;;;;5027079;28;20087;-76
2021/11/11 02:40:33;;;;;;;57.90;16.08;;;2.60;93.80;;;;;;5030723;28;20108;-76
2021/11/11 02:42:59;;;;;;;26.92;13.80;;;2.70;93.80;;;;;;5047725;28;20028;-76
2021/11/11 02:45:27;;;;;;;24.25;12.30;;;2.50;93.70;;;;;;5051733;28;20032;-76
2021/11/11 02:47:54;;;;;;;27.13;11.63;;;2.50;93.80;;;;;;5038830;28;20099;-76
2021/11/11 02:50:20;;;;;;;20.08;12.20;;;2.50;93.80;;;;;;5034433;28;20037;-76
2021/11/11 02:52:48;;;;;;;34.75;12.77;;;2.40;93.80;;;;;;5031570;28;20021;-77
2021/11/11 02:55:14;;;;;;;22.58;11.18;;;2.40;93.80;;;;;;5037612;28;20026;-77
2021/11/11 02:57:41;;;;;;;23.30;12.35;;;2.40;93.80;;;;;;5047574;28;20052;-77
2021/11/11 03:00:11;;;;;;;23.50;12.88;;;2.40;93.80;;;;;;5048944;28;20578;-76
2021/11/11 03:02:38;;;;;;;17.73;12.05;;;2.40;93.80;;;;;;5032176;28;20022;-76
2021/11/11 03:05:06;;;;;;;23.75;11.65;;;2.40;93.70;;;;;;5049654;28;20033;-76
2021/11/11 03:07:32;;;;;;;24.10;12.87;;;2.40;93.70;;;;;;5050869;28;20033;-76
2021/11/11 03:09:59;;;;;;;19.23;12.48;;;2.40;93.70;;;;;;5052087;28;20112;-76
2021/11/11 03:12:24;;;;;;;20.38;12.27;;;2.30;93.70;;;;;;5052167;28;20037;-76
2021/11/11 03:14:53;;;;;;;19.27;11.77;;;2.40;93.70;;;;;;5052275;28;20040;-76
2021/11/11 03:17:19;;;;;;;34.28;13.88;;;2.40;93.70;;;;;;5050908;28;20074;-76
2021/11/11 03:19:46;;;;;;;53.65;12.95;;;2.40;93.80;;;;;;5031456;28;20120;-76
2021/11/11 03:22:15;;;;;;;35.28;12.65;;;2.40;93.80;;;;;;5032371;28;20076;-76
2021/11/11 03:24:41;;;;;;;;;;;2.40;93.90;;;;;;5041196;28;20026;-76
2021/11/11 03:27:08;;;;;;;32.88;12.65;;;2.40;93.90;;;;;;5039066;28;19924;-77
2021/11/11 03:29:34;;;;;;;39.13;13.93;;;2.40;93.90;;;;;;5051830;28;20029;-76
2021/11/11 03:31:59;;;;;;;27.35;11.68;;;2.40;93.90;;;;;;5034120;28;20194;-76
2021/11/11 03:34:25;;;;;;;45.08;13.65;;;2.50;94.00;;;;;;5016325;28;20043;-76
2021/11/11 03:36:52;;;;;;;38.88;12.43;;;2.50;94.00;;;;;;5050558;28;20095;-76
2021/11/11 03:39:19;;;;;;;46.40;14.40;;;2.50;94.00;;;;;;5050228;28;20067;-76
2021/11/11 03:41:47;;;;;;;37.17;15.50;;;2.50;94.00;;;;;;5052334;28;20025;-76
2021/11/11 03:44:15;;;;;;;30.55;13.32;;;2.50;94.00;;;;;;5053646;28;20032;-76
2021/11/11 03:46:42;;;;;;;32.13;14.05;;;2.50;93.90;;;;;;5054090;28;20025;-76
2021/11/11 03:49:08;;;;;;;22.75;11.75;;;2.50;93.90;;;;;;5054610;28;20033;-76
2021/11/11 03:51:34;;;;;;;19.30;12.25;;;2.50;93.90;;;;;;5037165;28;20032;-76
2021/11/11 03:54:00;;;;;;;18.40;11.55;;;2.40;93.90;;;;;;5053095;28;20056;-76
2021/11/11 03:56:26;;;;;;;21.65;13.25;;;2.40;93.90;;;;;;5053813;28;20041;-76
2021/11/11 03:58:51;;;;;;;20.52;12.60;;;2.30;93.90;;;;;;5054186;28;20496;-77
2021/11/11 04:01:17;;;;;;;21.45;13.50;;;2.30;93.90;;;;;;5053351;28;20033;-76
2021/11/11 04:03:43;;;;;;;17.95;12.23;;;2.30;93.90;;;;;;5052571;28;20040;-76
2021/11/11 04:06:09;;;;;;;20.15;13.30;;;2.30;93.90;;;;;;5032965;28;20541;-76
2021/11/11 04:08:34;;;;;;;19.15;12.77;;;2.20;93.90;;;;;;5019133;28;20091;-76
2021/11/11 04:11:02;;;;;;;19.63;12.95;;;2.20;93.90;;;;;;5036781;28;20031;-76
2021/11/11 04:13:28;;;;;;;26.95;14.48;;;2.20;93.90;;;;;;5054488;28;20033;-76
2021/11/11 04:15:55;;;;;;;21.50;13.85;;;2.20;93.90;;;;;;5053162;28;20548;-76
2021/11/11 04:18:20;;;;;;;30.92;14.05;;;2.20;93.90;;;;;;5053291;28;20421;-76
2021/11/11 04:20:46;;;;;;;33.88;14.88;;;2.10;93.90;;;;;;5037516;28;20021;-76
2021/11/11 04:23:12;;;;;;;21.33;14.07;;;2.20;93.90;;;;;;5036241;28;20048;-76
2021/11/11 04:28:28;;;;;;;20.83;13.05;;;2.10;93.90;;;;;;5053353;28;20040;-76
2021/11/11 04:30:58;;;;;;;25.52;14.35;;;2.10;93.80;;;;;;5035947;28;20025;-76
2021/11/11 04:33:24;;;;;;;26.77;13.32;;;2.10;93.90;;;;;;5051736;28;20062;-76
2021/11/11 04:35:54;;;;;;;21.73;12.90;;;2.10;93.90;;;;;;5051725;28;20025;-76
2021/11/11 04:46:05;;;;;;;38.58;13.98;;;2.10;93.90;;;;;;5050723;28;20090;-76
2021/11/11 05:04:28;;;;;;;22.10;13.05;;;2.00;93.90;;;;;;5051684;28;20029;-77
2021/11/11 05:06:54;;;;;;;18.55;13.43;;;2.00;93.90;;;;;;5037551;28;20041;-76
2021/11/11 05:09:20;;;;;;;21.40;13.63;;;2.00;93.90;;;;;;5044478;28;20103;-77
2021/11/11 05:11:47;;;;;;;24.77;13.80;;;2.00;93.90;;;;;;5049707;28;20033;-76
2021/11/11 05:14:13;;;;;;;20.70;12.75;;;2.00;93.90;;;;;;5050263;28;20378;-76
2021/11/11 05:16:39;;;;;;;21.83;13.20;;;2.00;93.90;;;;;;5051516;28;20048;-76
2021/11/11 05:19:05;;;;;;;21.63;14.52;;;2.00;93.90;;;;;;5033970;28;20033;-76
2021/11/11 05:21:30;;;;;;;26.20;13.68;;;2.00;93.90;;;;;;5052438;28;20037;-83
2021/11/11 05:23:56;;;;;;;23.02;13.38;;;2.00;94.20;;;;;;5054668;28;20096;-82
2021/11/11 05:26:22;;;;;;;23.88;14.25;;;2.00;93.90;;;;;;5053542;28;20542;-83
2021/11/11 05:28:47;;;;;;;40.90;16.38;;;2.00;94.00;;;;;;5054455;28;20040;-83
2021/11/11 05:31:14;;;;;;;26.38;14.48;;;2.00;94.00;;;;;;5054066;28;20029;-82
2021/11/11 05:33:39;;;;;;;23.73;14.82;;;2.00;94.20;;;;;;5052273;28;20119;-80
2021/11/11 05:36:05;;;;;;;30.27;15.45;;;1.90;94.00;;;;;;5050557;28;20162;-80
2021/11/11 05:38:31;;;;;;;24.35;15.27;;;1.90;94.00;;;;;;5049794;28;20037;-80
2021/11/11 05:40:57;;;;;;;34.85;15.27;;;2.00;94.00;;;;;;5049965;28;20610;-80
2021/11/11 05:43:22;;;;;;;38.35;14.88;;;1.90;94.00;;;;;;5051592;28;20037;-80
2021/11/11 05:45:48;;;;;;;25.55;14.90;;;2.00;94.10;;;;;;5050872;28;20029;-80
2021/11/11 05:48:14;;;;;;;33.95;15.20;;;1.90;94.00;;;;;;5034111;28;20032;-80
2021/11/11 05:50:40;;;;;;;32.90;15.27;;;2.00;94.00;;;;;;5033652;28;20044;-80
2021/11/11 05:53:06;;;;;;;43.58;16.95;;;2.00;94.10;;;;;;5051037;28;20033;-80
2021/11/11 05:55:32;;;;;;;39.13;14.82;;;1.90;94.00;;;;;;5051593;28;20036;-80
2021/11/11 05:57:58;;;;;;;32.33;16.38;;;1.90;94.00;;;;;;5052233;28;20401;-80
2021/11/11 06:00:24;;;;;;;23.05;13.82;;;1.90;94.00;;;;;;5053857;28;20033;-80
2021/11/11 06:02:50;;;;;;;24.65;13.25;;;1.90;94.00;;;;;;5052581;28;20025;-80
2021/11/11 06:05:18;;;;;;;32.10;15.38;;;1.90;94.00;;;;;;5052140;28;20028;-80
2021/11/11 06:07:44;;;;;;;30.67;14.57;;;1.90;94.30;;;;;;5052228;28;20052;-80
2021/11/11 06:10:10;;;;;;;25.50;14.50;;;1.90;94.00;;;;;;5051676;28;20055;-80
2021/11/11 06:12:36;;;;;;;26.52;15.48;;;1.90;94.00;;;;;;5035910;28;20119;-80
2021/11/11 06:15:02;;;;;;;29.52;15.63;;;1.80;94.10;;;;;;5050116;28;20560;-80
2021/11/11 06:17:27;;;;;;;33.38;17.45;;;1.80;94.10;;;;;;5049599;28;20037;-80
2021/11/11 06:19:53;;;;;;;29.92;16.80;;;1.80;94.10;;;;;;5054831;28;20040;-80
2021/11/11 06:22:22;;;;;;;31.60;16.05;;;1.80;94.10;;;;;;5051632;28;20040;-80
2021/11/11 06:24:48;;;;;;;;;;;1.80;94.10;;;;;;5051919;28;20056;-80
2021/11/11 06:27:14;;;;;;;35.17;17.73;;;1.80;94.10;;;;;;5068125;28;20373;-80
2021/11/11 06:29:40;;;;;;;35.90;18.35;;;1.80;94.10;;;;;;5052044;28;20114;-80
2021/11/11 06:32:06;;;;;;;33.55;17.52;;;1.80;94.10;;;;;;5035126;28;20135;-80
2021/11/11 06:34:32;;;;;;;28.10;16.52;;;1.80;94.10;;;;;;5051406;28;20488;-80
2021/11/11 06:36:57;;;;;;;32.30;16.85;;;1.80;94.10;;;;;;5052008;28;20115;-80
2021/11/11 06:39:23;;;;;;;33.45;17.58;;;1.80;94.10;;;;;;5035318;28;20052;-80
2021/11/11 06:41:49;;;;;;;37.35;17.83;;;1.90;94.20;;;;;;5052550;28;20108;-80
2021/11/11 06:44:22;;;;;;;32.03;15.85;;;1.80;94.10;;;;;;5052579;28;20021;-80
2021/11/11 06:46:48;;;;;;;29.35;14.98;;;1.90;94.20;;;;;;5052745;28;20075;-80
2021/11/11 06:49:14;;;;;;;39.00;19.63;;;1.90;94.10;;;;;;5031790;28;20494;-80
2021/11/11 06:51:40;;;;;;;32.17;17.25;;;1.90;94.10;;;;;;5025719;28;20053;-80
2021/11/11 06:54:08;;;;;;;32.63;17.27;;;1.90;94.20;;;;;;5031944;28;20025;-80
2021/11/11 06:56:34;;;;;;;33.20;17.42;;;2.00;94.20;;;;;;5048221;28;20037;-80
2021/11/11 06:58:59;;;;;;;34.00;16.80;;;2.00;94.30;;;;;;5033162;28;20083;-80
2021/11/11 07:01:25;;;;;;;35.83;18.02;;;2.10;94.30;;;;;;5044543;28;20056;-80
2021/11/11 07:03:50;;;;;;;33.85;18.02;;;2.20;94.40;;;;;;5053068;28;20493;-80
2021/11/11 07:06:16;;;;;;;31.65;17.05;;;2.20;94.30;;;;;;5053000;28;20033;-81
2021/11/11 07:08:42;;;;;;;42.28;21.33;;;2.20;94.30;;;;;;5031281;28;20040;-81
2021/11/11 07:11:07;;;;;;;39.72;20.30;;;2.20;94.40;;;;;;5031444;28;20061;-80
2021/11/11 07:13:34;;;;;;;38.67;20.88;;;2.20;94.40;;;;;;5034842;28;20041;-80
2021/11/11 07:16:00;;;;;;;35.63;18.13;;;2.20;94.50;;;;;;5033264;28;20787;-80
2021/11/11 07:18:26;;;;;;;31.85;17.13;;;2.30;94.60;;;;;;5055754;28;20025;-80
2021/11/11 07:20:53;;;;;;;37.90;17.95;;;2.30;94.60;;;;;;5055725;28;20025;-80
2021/11/11 07:23:22;;;;;;;40.50;20.25;;;2.30;94.50;;;;;;5055826;28;20025;-80
2021/11/11 07:25:49;;;;;;;31.08;18.10;;;2.30;94.60;;;;;;5055660;28;20039;-80
2021/11/11 07:28:15;;;;;;;33.00;17.88;;;2.30;94.60;;;;;;5056553;28;20042;-80
2021/11/11 07:30:42;;;;;;;36.42;18.23;;;2.30;94.90;;;;;;5055011;28;20035;-80
2021/11/11 07:33:07;;;;;;;32.38;18.95;;;2.40;94.60;;;;;;5055319;28;20045;-80
2021/11/11 07:35:34;;;;;;;34.67;17.17;;;2.40;94.60;;;;;;5038436;28;20040;-80
2021/11/11 07:38:00;;;;;;;29.08;17.50;;;2.40;94.60;;;;;;5038920;28;20056;-80
2021/11/11 07:40:26;;;;;;;33.75;18.45;;;2.40;94.70;;;;;;5056631;28;20100;-80
2021/11/11 07:42:54;;;;;;;36.38;19.77;;;2.40;94.70;;;;;;5055223;28;20032;-80
2021/11/11 07:45:28;;;;;;;31.40;16.65;;;2.50;94.70;;;;;;5038745;28;20120;-80
2021/11/11 07:47:54;;;;;;;43.47;22.13;;;2.50;95.00;;;;;;5056285;28;20025;-80
2021/11/11 07:50:21;;;;;;;42.45;21.20;;;2.50;94.70;;;;;;5056547;28;20036;-80
2021/11/11 07:52:47;;;;;;;34.65;19.38;;;2.50;94.70;;;;;;5056382;28;20060;-80
2021/11/11 07:55:13;;;;;;;34.30;18.58;;;2.50;94.70;;;;;;5056040;28;20454;-80
2021/11/11 07:57:39;;;;;;;39.97;21.00;;;2.50;94.80;;;;;;5056326;28;20060;-80
2021/11/11 08:00:08;;;;;;;35.72;18.45;;;2.60;94.80;;;;;;5054962;28;20120;-80
2021/11/11 08:02:34;;;;;;;53.50;24.52;;;2.60;94.80;;;;;;5056473;28;20035;-80
2021/11/11 08:05:00;;;;;;;41.10;20.15;;;2.70;94.80;;;;;;5054907;28;20111;-80
2021/11/11 08:07:25;;;;;;;39.75;21.30;;;2.80;94.80;;;;;;5056229;28;20025;-80
2021/11/11 08:09:51;;;;;;;44.35;21.05;;;2.80;94.80;;;;;;5056218;28;20474;-80
2021/11/11 08:12:18;;;;;;;37.35;19.95;;;2.90;94.80;;;;;;5054530;28;20896;-80
2021/11/11 08:14:44;;;;;;;47.85;19.63;;;3.00;94.80;;;;;;5054176;28;20021;-80
2021/11/11 08:17:11;;;;;;;43.35;19.77;;;3.10;94.70;;;;;;5054097;28;20070;-80
2021/11/11 08:19:38;;;;;;;32.80;18.75;;;3.20;94.70;;;;;;5055444;28;20513;-80
2021/11/11 08:22:04;;;;;;;36.00;19.73;;;3.30;94.70;;;;;;5055556;28;20036;-80
2021/11/11 08:24:30;;;;;;;34.75;18.55;;;3.50;94.70;;;;;;5054375;28;20179;-80
2021/11/11 08:26:55;;;;;;;34.30;19.88;;;3.50;94.60;;;;;;5072485;28;20040;-80
2021/11/11 08:29:21;;;;;;;34.25;18.92;;;3.60;94.80;;;;;;5064790;28;20020;-80
2021/11/11 08:31:47;;;;;;;52.45;25.50;;;3.70;94.50;;;;;;5054376;28;20834;-80
2021/11/11 08:34:12;;;;;;;49.45;22.98;;;3.80;94.50;;;;;;5053789;28;20167;-80
2021/11/11 08:36:38;;;;;;;41.30;22.33;;;4.00;94.50;;;;;;5055358;28;20033;-80
2021/11/11 08:39:04;;;;;;;46.15;20.98;;;4.10;94.40;;;;;;5037368;28;20021;-80
2021/11/11 08:41:30;;;;;;;48.33;22.77;;;4.20;94.30;;;;;;5053989;28;20033;-80
2021/11/11 08:43:58;;;;;;;46.80;22.70;;;4.40;94.20;;;;;;5053509;28;20478;-80
2021/11/11 08:46:25;;;;;;;42.45;22.45;;;4.40;94.30;;;;;;5037921;28;20490;-80
2021/11/11 08:48:52;;;;;;;48.03;24.17;;;4.60;94.10;;;;;;5055208;28;20470;-80
2021/11/11 08:51:18;;;;;;;49.38;23.25;;;4.50;94.00;;;;;;5054727;28;20100;-80
2021/11/11 08:53:44;;;;;;;43.90;21.90;;;4.50;94.00;;;;;;5053529;28;20112;-80
2021/11/11 08:56:09;;;;;;;42.40;21.20;;;4.50;94.10;;;;;;5054804;28;20791;-80
2021/11/11 08:58:37;;;;;;;46.70;22.52;;;4.60;94.20;;;;;;5054063;28;20040;-80
2021/11/11 09:01:06;;;;;;;45.47;23.23;;;4.60;94.20;;;;;;5053439;28;20020;-83
2021/11/11 09:03:32;;;;;;;48.22;22.35;;;4.60;94.20;;;;;;5052279;28;20033;-82
2021/11/11 09:05:58;;;;;;;46.00;23.10;;;4.70;94.30;;;;;;5050251;28;20048;-82
2021/11/11 09:08:24;;;;;;;47.72;24.23;;;4.70;94.60;;;;;;5050806;28;20057;-82
2021/11/11 09:10:52;;;;;;;51.20;24.65;;;4.80;94.40;;;;;;5051071;28;20563;-83
2021/11/11 09:13:17;;;;;;;45.17;23.75;;;4.80;94.40;;;;;;5054007;28;20025;-83
2021/11/11 09:15:43;;;;;;;46.55;23.35;;;4.80;94.70;;;;;;5053413;28;20083;-83
2021/11/11 09:18:09;;;;;;;45.72;23.83;;;4.90;94.50;;;;;;5054808;28;20025;-82
2021/11/11 09:20:37;;;;;;;47.47;23.95;;;5.00;94.50;;;;;;5036151;28;20398;-83
2021/11/11 09:23:03;;;;;;;43.47;23.65;;;5.00;94.80;;;;;;5059315;28;20420;-83
2021/11/11 09:25:31;;;;;;;50.55;25.67;;;5.10;94.50;;;;;;5042866;28;20034;-82
2021/11/11 09:27:59;;;;;;;43.00;22.00;;;5.20;94.50;;;;;;5032863;28;20033;-82
2021/11/11 09:30:28;;;;;;;52.97;26.45;;;5.30;94.60;;;;;;5049132;28;20102;-82
2021/11/11 09:32:54;;;;;;;;;;;5.30;94.50;;;;;;5034504;28;20053;-82
2021/11/11 09:35:20;;;;;;;42.63;24.33;;;5.40;94.50;;;;;;5040700;28;19919;-81
2021/11/11 09:37:46;;;;;;;49.45;24.70;;;5.50;94.50;;;;;;5054422;28;20496;-81
2021/11/11 09:40:21;;;;;;;43.67;22.92;;;5.50;94.50;;;;;;5053130;28;20033;-79
2021/11/11 09:42:47;;;;;;;49.85;24.83;;;5.60;94.50;;;;;;5054388;28;20040;-79
2021/11/11 09:45:15;;;;;;;51.50;24.75;;;5.70;94.50;;;;;;5053211;28;20477;-80
2021/11/11 09:47:47;;;;;;;41.10;22.45;;;5.70;94.50;;;;;;5052757;28;20036;-80
2021/11/11 09:50:12;;;;;;;50.45;26.58;;;5.80;94.50;;;;;;5052650;28;20031;-80
2021/11/11 09:52:40;;;;;;;49.33;24.65;;;5.90;94.50;;;;;;5053149;28;20549;-80
2021/11/11 10:00:40;;;;;;;49.72;27.25;;;6.10;94.50;;;;;;5054124;28;20032;-81
2021/11/11 10:03:07;;;;;;;45.05;24.27;;;6.10;94.50;;;;;;5053987;28;20076;-81
2021/11/11 10:05:33;;;;;;;49.45;26.83;;;6.20;94.60;;;;;;5036055;28;20639;-84
2021/11/11 10:08:01;;;;;;;52.13;29.15;;;6.30;94.60;;;;;;5053950;28;20537;-84
2021/11/11 10:10:37;;;;;;;55.33;26.48;;;6.40;94.60;;;;;;5052820;28;20098;-84
2021/11/11 10:13:20;;;;;;;50.72;27.27;;;6.40;94.60;;;;;;5052512;28;20116;-85
2021/11/11 10:16:14;;;;;;;54.88;27.40;;;6.50;94.60;;;;;;5052608;28;20032;-84
2021/11/11 10:18:46;;;;;;;48.42;26.60;;;6.60;94.60;;;;;;5053880;28;20021;-81
2021/11/11 10:21:43;;;;;;;44.58;25.60;;;6.60;94.50;;;;;;5053593;28;20628;-81
2021/11/11 10:24:17;;;;;;;46.85;26.75;;;6.70;94.50;;;;;;5040413;28;20037;-80
2021/11/11 10:26:53;;;;;;;48.33;26.65;;;6.80;94.40;;;;;;5053518;28;20056;-80
2021/11/11 10:29:30;;;;;;;47.53;25.75;;;6.90;94.40;;;;;;5053693;28;20108;-81
2021/11/11 10:32:05;;;;;;;47.22;27.05;;;7.00;94.60;;;;;;5053356;28;20124;-80
2021/11/11 10:34:31;;;;;;;66.78;28.15;;;7.10;94.30;;;;;;5051905;28;20025;-82
2021/11/11 10:36:57;;;;;;;43.55;24.70;;;7.20;94.30;;;;;;5052277;28;20029;-79
2021/11/11 10:39:30;;;;;;;53.67;25.58;;;7.20;94.30;;;;;;5051521;28;20470;-79
2021/11/11 10:41:58;;;;;;;53.47;27.98;;;7.30;94.30;;;;;;5049512;28;20146;-79
2021/11/11 10:44:33;;;;;;;52.83;26.55;;;7.40;94.20;;;;;;5049676;28;20037;-79
2021/11/11 10:47:08;;;;;;;44.58;24.33;;;7.50;94.20;;;;;;5051771;28;20148;-81
2021/11/11 10:49:41;;;;;;;52.35;26.08;;;7.60;94.10;;;;;;5052670;28;20021;-80
2021/11/11 10:52:28;;;;;;;52.30;26.85;;;7.60;94.00;;;;;;5053227;28;20029;-81
2021/11/11 10:55:14;;;;;;;50.55;27.58;;;7.70;94.10;;;;;;5053305;28;20056;-80
2021/11/11 10:57:56;;;;;;;48.65;24.23;;;7.80;94.00;;;;;;5053213;28;20028;-80
2021/11/11 11:00:49;;;;;;;52.13;26.08;;;7.90;93.90;;;;;;5051679;28;20017;-80
2021/11/11 11:03:19;;;;;;;49.20;25.60;;;8.00;93.80;;;;;;5053121;28;20473;-80
2021/11/11 11:06:08;;;;;;;52.30;27.35;;;8.00;93.80;;;;;;5051377;28;20029;-80
2021/11/11 11:08:37;;;;;;;;;;;8.10;93.80;;;;;;5053546;28;20025;-80
2021/11/11 11:11:15;;;;;;;43.33;23.95;;;8.10;93.70;;;;;;5051459;28;20289;-80
2021/11/11 11:13:54;;;;;;;46.95;26.15;;;8.20;94.00;;;;;;5052860;28;20409;-80
2021/11/11 11:16:22;;;;;;;47.25;24.90;;;8.30;93.70;;;;;;5052777;28;20035;-81
2021/11/11 11:19:09;;;;;;;48.03;26.70;;;8.20;93.50;;;;;;5052840;28;20151;-80
2021/11/11 11:21:40;;;;;;;42.38;25.20;;;8.40;93.50;;;;;;5052491;28;20025;-80
2021/11/11 11:24:15;;;;;;;46.20;23.65;;;8.40;93.50;;;;;;5050309;28;20087;-78
2021/11/11 11:26:53;;;;;;;45.88;25.33;;;8.50;93.50;;;;;;5048364;28;20409;-77
2021/11/11 11:29:29;;;;;;;50.53;25.63;;;8.50;93.40;;;;;;5049160;28;20359;-78
2021/11/11 11:34:32;;;;;;;46.88;23.15;;;8.50;93.20;;;;;;5051193;28;20503;-78
2021/11/11 11:37:13;;;;;;;41.75;22.30;;;8.60;93.20;;;;;;5049894;28;20075;-78
2021/11/11 11:39:46;;;;;;;43.85;24.50;;;8.60;93.10;;;;;;5051443;28;20028;-78
2021/11/11 11:42:21;;;;;;;46.75;25.17;;;8.70;93.10;;;;;;5050949;28;20029;-78
2021/11/11 11:44:49;;;;;;;42.65;23.42;;;8.70;92.90;;;;;;5051331;28;20021;-78
2021/11/11 11:47:32;;;;;;;39.58;23.65;;;8.80;92.90;;;;;;5052206;28;20021;-78
2021/11/11 11:50:07;;;;;;;39.03;22.77;;;8.90;92.80;;;;;;5050509;28;20021;-78
2021/11/11 11:52:35;;;;;;;40.10;22.77;;;9.00;92.70;;;;;;5051615;28;20022;-80
2021/11/11 11:55:15;;;;;;;39.20;22.85;;;9.10;92.70;;;;;;5052583;28;20107;-81
2021/11/11 12:08:02;;;;;;;39.95;22.80;;;9.40;92.50;;;;;;5036014;28;20498;-81
2021/11/11 12:34:13;;;;;;;52.25;23.42;;;9.40;92.40;;;;;;5035449;28;20386;-81
2021/11/11 12:38:36;;;;;;;39.22;22.65;;;9.40;92.50;;;;;;5055930;28;20098;-80
2021/11/11 12:41:28;;;;;;;42.90;24.42;;;9.40;92.40;;;;;;5054353;28;20017;-80
2021/11/11 12:44:13;;;;;;;40.53;21.67;;;9.40;92.50;;;;;;5034593;28;20083;-80
2021/11/11 12:46:46;;;;;;;35.75;22.77;;;9.40;92.50;;;;;;5051447;28;20087;-80
2021/11/11 12:49:27;;;;;;;36.45;22.83;;;9.50;92.70;;;;;;5054348;28;20032;-80
2021/11/11 12:52:28;;;;;;;42.63;22.75;;;9.50;92.40;;;;;;5054144;28;20054;-81
2021/11/11 12:55:17;;;;;;;48.55;25.35;;;9.50;92.60;;;;;;5013068;28;20029;-81
2021/11/11 12:58:01;;;;;;;50.22;24.15;;;9.60;92.40;;;;;;5034469;28;20044;-80
2021/11/11 13:00:57;;;;;;;41.45;24.63;;;9.60;92.30;;;;;;5035240;28;20025;-79
2021/11/11 13:03:57;;;;;;;41.42;24.23;;;9.60;92.30;;;;;;5041017;28;20039;-78
2021/11/11 13:06:42;;;;;;;42.00;22.63;;;9.60;92.20;;;;;;5054138;28;20060;-78
2021/11/11 13:09:18;;;;;;;50.50;24.63;;;9.60;92.20;;;;;;5047245;28;20031;-78
2021/11/11 13:11:46;;;;;;;43.40;23.40;;;9.60;92.10;;;;;;5053001;28;20021;-78
2021/11/11 13:14:20;;;;;;;40.78;23.10;;;9.70;92.20;;;;;;5052960;28;20029;-78
2021/11/11 13:17:08;;;;;;;43.05;25.23;;;9.70;92.20;;;;;;5053533;28;20036;-80
2021/11/11 13:20:14;;;;;;;37.17;22.50;;;9.70;92.30;;;;;;5053459;28;20021;-80
2021/11/11 13:23:06;;;;;;;42.80;24.60;;;9.70;92.30;;;;;;5033603;28;20032;-79
2021/11/11 13:25:58;;;;;;;44.38;23.27;;;9.70;92.30;;;;;;5052966;28;20135;-79
2021/11/11 14:02:03;;;;;;;51.25;24.95;;;9.80;92.40;;;;;;5054507;28;20535;-80
2021/11/11 16:24:05;;;;;;;50.22;27.52;;;9.30;94.10;;;;;;5054185;28;20025;-74
2021/11/11 16:26:31;;;;;;;52.63;26.77;;;9.30;94.10;;;;;;5044846;28;20347;-74
2021/11/11 16:28:58;;;;;;;46.35;28.05;;;9.20;94.10;;;;;;5055474;28;20139;-74
2021/11/11 16:31:26;;;;;;;55.35;28.65;;;9.20;94.10;;;;;;5055128;28;20033;-75
2021/11/11 16:33:54;;;;;;;48.40;28.10;;;9.20;94.10;;;;;;5053861;28;20110;-74
2021/11/11 16:36:20;;;;;;;57.33;29.83;;;9.30;94.20;;;;;;5054972;28;20037;-74
2021/11/11 16:38:49;;;;;;;54.15;31.75;;;9.20;94.10;;;;;;5053988;28;20401;-74
2021/11/11 16:41:16;;;;;;;55.47;31.75;;;9.20;94.20;;;;;;5054674;28;20758;-74
2021/11/11 16:43:42;;;;;;;60.67;32.05;;;9.20;94.20;;;;;;5053163;28;20029;-74
2021/11/11 16:46:08;;;;;;;63.45;34.10;;;9.20;94.20;;;;;;5053539;28;20032;-74
2021/11/11 16:48:35;;;;;;;60.45;32.10;;;9.20;94.20;;;;;;5052645;28;20037;-77
2021/11/11 16:51:03;;;;;;;49.42;28.92;;;9.20;94.20;;;;;;5053095;28;20119;-77